Have a Safe July 4th! 

Flight Track Log - Related Links

Times and Time Zones

All times are in EDT time to prevent confusion due to time zone crossing. See the N97826 flight status page for this flight to view local times or setup timezone preferences in your user account.

Time Position Orientation Groundspeed Altitude Reporting Facility
EDT Latitude Longitude Course Direction KTS MPH feet Rate Location/Type
Tue 11:24:17 AM 27.9667 -82.5333 270° West 83 96 400  Level Tampa TRACON
Tue 11:25:30 AM 27.9667 -82.5500 270° West 109 125 1,400 662 Climbing Tampa TRACON
Tue 11:26:42 AM 27.9833 -82.5833 300° West 139 160 2,000 350 Climbing Tampa TRACON
Tue 11:27:30 AM 28.0000 -82.6167 300° West 156 180 2,100 579 Climbing Tampa TRACON
Tue 11:28:36 AM 28.0167 -82.6667 291° West 129 148 3,100 857 Climbing Tampa TRACON
Tue 11:29:36 AM 28.0500 -82.6833 336° Northwest 123 142 3,900 684 Climbing Tampa TRACON
Tue 11:30:30 AM 28.0667 -82.7000 319° Northwest 122 140 4,400 650 Climbing Tampa TRACON
Tue 11:31:36 AM 28.1000 -82.7333 319° Northwest 125 144 5,200 762 Climbing Tampa TRACON
Tue 11:32:36 AM 28.1333 -82.7667 319° Northwest 127 146 6,000 594 Climbing Tampa TRACON
Tue 11:36:19 AM 28.2333 -82.8431 326° Northwest 132 152 8,000 424 Climbing Jacksonville Center
Tue 11:37:19 AM 28.2667 -82.8736 321° Northwest 144 166 8,000  Level Jacksonville Center
Tue 11:38:19 AM 28.3044 -82.9067 322° Northwest 156 180 8,000  Level Jacksonville Center
Tue 11:39:19 AM 28.3378 -82.9350 323° Northwest 161 185 8,000  Level Jacksonville Center
Tue 11:40:19 AM 28.3753 -82.9658 324° Northwest 161 185 8,000  Level Jacksonville Center
Tue 11:41:19 AM 28.4108 -83.0011 319° Northwest 161 185 8,000  Level Jacksonville Center
Tue 11:42:19 AM 28.4544 -83.0247 335° Northwest 175 201 8,000  Level Jacksonville Center
Tue 11:43:19 AM 28.4942 -83.0508 330° Northwest 175 201 8,000  Level Jacksonville Center
Tue 11:44:19 AM 28.5339 -83.0744 332° Northwest 170 196 8,000  Level Jacksonville Center
Tue 11:45:19 AM 28.5714 -83.1006 329° Northwest 165 190 8,000  Level Jacksonville Center
Tue 11:46:19 AM 28.6108 -83.1244 332° Northwest 165 190 8,000  Level Jacksonville Center
Tue 11:47:19 AM 28.6483 -83.1481 331° Northwest 165 190 8,000  Level Jacksonville Center
Tue 11:48:19 AM 28.6881 -83.1742 330° Northwest 160 184 8,000  Level Jacksonville Center
Tue 11:49:19 AM 28.7275 -83.1981 332° Northwest 165 190 8,000  Level Jacksonville Center
Tue 11:50:19 AM 28.7672 -83.2219 332° Northwest 165 190 8,000  Level Jacksonville Center
Tue 11:51:19 AM 28.8067 -83.2481 330° Northwest 165 190 8,000  Level Jacksonville Center
Tue 11:52:19 AM 28.8444 -83.2742 329° Northwest 165 190 8,000  Level Jacksonville Center
Tue 11:53:19 AM 28.8819 -83.2956 333° Northwest 165 190 8,000  Level Jacksonville Center
Tue 11:54:19 AM 28.9214 -83.3219 330° Northwest 165 190 8,000  Level Jacksonville Center
Tue 11:55:19 AM 28.9608 -83.3458 332° Northwest 165 190 8,000  Level Jacksonville Center
Tue 11:56:19 AM 29.0006 -83.3722 330° Northwest 165 190 8,000  Level Jacksonville Center
Tue 11:57:19 AM 29.0400 -83.3961 332° Northwest 165 190 8,000  Level Jacksonville Center
Tue 11:58:19 AM 29.0797 -83.4200 332° Northwest 165 190 8,000  Level Jacksonville Center
Tue 11:59:19 AM 29.1192 -83.4489 327° Northwest 165 190 8,000  Level Jacksonville Center
Tue 12:00:19 PM 29.1586 -83.4750 330° Northwest 165 190 8,000  Level Jacksonville Center
Tue 12:01:19 PM 29.1983 -83.4967 335° Northwest 165 190 8,000  Level Jacksonville Center
Tue 12:02:20 PM 29.2378 -83.5233 329° Northwest 165 190 8,000  Level Jacksonville Center
Tue 12:03:19 PM 29.2733 -83.5447 332° Northwest 165 190 8,000  Level Jacksonville Center
Tue 12:04:19 PM 29.3128 -83.5689 332° Northwest 165 190 8,000  Level Jacksonville Center
Tue 12:05:19 PM 29.3522 -83.5978 327° Northwest 165 190 8,000  Level Jacksonville Center
Tue 12:06:19 PM 29.3939 -83.6219 333° Northwest 165 190 8,000  Level Jacksonville Center
Tue 12:07:19 PM 29.4333 -83.6483 330° Northwest 165 190 8,000  Level Jacksonville Center
Tue 12:08:19 PM 29.4750 -83.6728 333° Northwest 165 190 8,000  Level Jacksonville Center
Tue 12:09:19 PM 29.5144 -83.6992 330° Northwest 165 190 8,000  Level Jacksonville Center
Tue 12:10:19 PM 29.5561 -83.7258 331° Northwest 165 190 8,000  Level Jacksonville Center
Tue 12:11:19 PM 29.5956 -83.7525 330° Northwest 165 190 8,000  Level Jacksonville Center
Tue 12:12:19 PM 29.6372 -83.7792 331° Northwest 165 190 8,000  Level Jacksonville Center
Tue 12:13:19 PM 29.6767 -83.8058 330° Northwest 165 190 8,000  Level Jacksonville Center
Tue 12:14:19 PM 29.7181 -83.8300 333° Northwest 165 190 8,000  Level Jacksonville Center
Tue 12:15:19 PM 29.7575 -83.8567 330° Northwest 165 190 8,000 50 Level Jacksonville Center
Tue 12:16:19 PM 29.7972 -83.8811 332° Northwest 165 190 8,100 50 Climbing Jacksonville Center
Tue 12:17:19 PM 29.8367 -83.9078 330° Northwest 165 190 8,100  Level Jacksonville Center
Tue 12:18:19 PM 29.8761 -83.9344 330° Northwest 165 190 8,100  Level Jacksonville Center
Tue 12:19:19 PM 29.9175 -83.9589 333° Northwest 165 190 8,100  Level Jacksonville Center
Tue 12:20:19 PM 29.9569 -83.9858 329° Northwest 165 190 8,100  Level Jacksonville Center
Tue 12:21:19 PM 29.9964 -84.0103 332° Northwest 165 190 8,100  Level Jacksonville Center
Tue 12:22:19 PM 30.0400 -84.0347 334° Northwest 165 190 8,100  Level Jacksonville Center
Tue 12:24:00 PM 30.1033 -84.0782 329° Northwest  Level FlightAware Approximate
Tue 12:31:00 PM 30.3704 -84.2521 331° Northwest  Level FlightAware Approximate
Tue 12:32:00 PM 30.4088 -84.2766 331° Northwest  Level FlightAware Approximate
Tue 12:33:00 PM 30.4471 -84.3010 331° Northwest  Level FlightAware Approximate
Tue 12:34:00 PM 30.4855 -84.3255 331° Northwest  Level FlightAware Approximate
Tue 12:35:00 PM 30.5238 -84.3500 331° Northwest  Level FlightAware Approximate
Tue 12:36:00 PM 30.5627 -84.3732 336° Northwest  Level FlightAware Approximate
Tue 12:37:00 PM 30.6028 -84.3938 336° Northwest  Level FlightAware Approximate
Tue 12:38:00 PM 30.6428 -84.4144 336° Northwest  Level FlightAware Approximate
Tue 12:39:00 PM 30.6828 -84.4349 336° Northwest  Level FlightAware Approximate
Tue 12:40:00 PM 30.7229 -84.4556 336° Northwest  Level FlightAware Approximate
Tue 12:40:20 PM 30.7722 -84.4858 336° Northwest 165 190 8,100  Level Jacksonville Center
Tue 12:41:00 PM 30.7629 -84.4762 336° Northwest  Level FlightAware Approximate
Tue 12:41:20 PM 30.8075 -84.5033 337° Northwest 165 190 8,100  Level Jacksonville Center
Tue 12:42:00 PM 30.8029 -84.4968 336° Northwest  Level FlightAware Approximate
Tue 12:42:20 PM 30.8594 -84.5286 337° Northwest 165 190 8,100  Level Jacksonville Center
Tue 12:43:00 PM 30.8430 -84.5175 336° Northwest  Level FlightAware Approximate
Tue 12:43:20 PM 30.8947 -84.5461 337° Northwest 165 190 8,100  Level Jacksonville Center
Tue 12:44:00 PM 30.8830 -84.5382 336° Northwest  Level FlightAware Approximate
Tue 12:44:20 PM 30.9361 -84.5661 337° Northwest 165 190 8,100  Level Jacksonville Center
Tue 12:45:20 PM 30.9775 -84.5886 335° Northwest 165 190 8,000 -50 Descending Jacksonville Center
Tue 12:46:20 PM 31.0192 -84.6089 337° Northwest 165 190 8,000  Level Jacksonville Center
Tue 12:47:20 PM 31.0606 -84.6314 335° Northwest 165 190 8,000  Level Jacksonville Center
Tue 12:48:20 PM 31.1042 -84.6542 336° Northwest 165 190 8,000  Level Jacksonville Center
Tue 12:49:20 PM 31.1456 -84.6742 338° Northwest 165 190 8,000  Level Jacksonville Center
Tue 12:50:20 PM 31.1892 -84.6944 338° Northwest 160 184 8,000  Level Jacksonville Center
Tue 12:51:20 PM 31.2286 -84.7172 334° Northwest 160 184 8,000  Level Jacksonville Center
Tue 12:52:20 PM 31.2719 -84.7400 336° Northwest 155 178 8,000  Level Jacksonville Center
Tue 12:53:20 PM 31.3133 -84.7625 335° Northwest 155 178 8,000  Level Jacksonville Center
Tue 12:54:19 PM 31.3550 -84.7828 337° Northwest 155 178 8,000  Level Jacksonville Center
Tue 12:55:20 PM 31.3983 -84.8056 336° Northwest 155 178 8,000  Level Jacksonville Center
Tue 12:56:20 PM 31.4419 -84.8261 338° Northwest 160 184 8,000  Level Jacksonville Center
Tue 12:57:20 PM 31.4814 -84.8489 334° Northwest 160 184 8,000  Level Jacksonville Center
Tue 12:58:20 PM 31.5247 -84.8717 336° Northwest 160 184 8,000  Level Jacksonville Center
Tue 12:59:20 PM 31.5661 -84.8919 337° Northwest 160 184 8,000  Level Jacksonville Center
Tue 01:00:20 PM 31.6075 -84.9147 335° Northwest 160 184 8,000  Level Jacksonville Center
Tue 01:01:20 PM 31.6489 -84.9378 335° Northwest 155 178 8,000  Level Jacksonville Center
Tue 01:03:11 PM 31.7333 -84.9833 335° Northwest 165 190 8,000  Level Atlanta TRACON
Tue 01:04:11 PM 31.7667 -85.0000 337° Northwest 167 192 8,000  Level Atlanta TRACON
Tue 01:05:05 PM 31.8167 -85.0167 344° North 166 191 8,000  Level Atlanta TRACON
Tue 01:06:05 PM 31.8500 -85.0500 320° Northwest 163 188 8,000  Level Atlanta TRACON
Tue 01:07:05 PM 31.9000 -85.0667 344° North 166 191 8,000  Level Atlanta TRACON
Tue 01:08:05 PM 31.9500 -85.0833 344° North 167 192 8,000  Level Atlanta TRACON
Tue 01:09:05 PM 31.9833 -85.1167 320° Northwest 166 191 8,000  Level Atlanta TRACON
Tue 01:10:05 PM 32.0333 -85.1333 344° North 165 190 8,000  Level Atlanta TRACON
Tue 01:11:05 PM 32.0667 -85.1500 337° Northwest 164 189 8,000  Level Atlanta TRACON
Tue 01:12:11 PM 32.1167 -85.1833 331° Northwest 167 192 8,000  Level Atlanta TRACON
Tue 01:13:05 PM 32.1500 -85.2000 337° Northwest 167 192 8,000  Level Atlanta TRACON
Tue 01:13:59 PM 32.1833 -85.2167 337° Northwest 166 191 8,000  Level Atlanta TRACON
Tue 01:15:05 PM 32.2333 -85.2500 331° Northwest 168 193 8,000  Level Atlanta TRACON
Tue 01:16:05 PM 32.2833 -85.2667 344° North 169 194 8,000  Level Atlanta TRACON
Tue 01:17:05 PM 32.3167 -85.2833 337° Northwest 170 196 8,000  Level Atlanta TRACON
Tue 01:18:11 PM 32.3667 -85.3167 331° Northwest 167 192 8,000  Level Atlanta TRACON
Tue 01:19:11 PM 32.4167 -85.3333 344° North 169 194 8,000  Level Atlanta TRACON
Tue 01:20:11 PM 32.4500 -85.3500 337° Northwest 166 191 8,000  Level Atlanta TRACON
Tue 01:21:11 PM 32.5000 -85.3833 331° Northwest 167 192 8,000  Level Atlanta TRACON
Tue 01:22:05 PM 32.5333 -85.4000 337° Northwest 165 190 8,000  Level Atlanta TRACON
Tue 01:23:05 PM 32.5833 -85.4167 344° North 167 192 8,000  Level Atlanta TRACON
Tue 01:24:05 PM 32.6167 -85.4500 320° Northwest 166 191 8,000  Level Atlanta TRACON
Tue 01:25:05 PM 32.6667 -85.4667 344° North 168 193 8,000  Level Atlanta TRACON
Tue 01:26:05 PM 32.7000 -85.4833 337° Northwest 165 190 8,000  Level Atlanta TRACON
Tue 01:27:20 PM 32.7500 -85.5158 331° Northwest 169 194 8,000  Level Atlanta Center
Tue 01:28:20 PM 32.7917 -85.5386 335° Northwest 170 196 8,000  Level Atlanta Center
Tue 01:29:20 PM 32.8331 -85.5617 335° Northwest 170 196 8,000  Level Atlanta Center
Tue 01:30:20 PM 32.8767 -85.5822 338° Northwest 170 196 8,000 50 Level Atlanta Center
Tue 01:31:20 PM 32.9181 -85.6053 335° Northwest 170 196 8,100 50 Climbing Atlanta Center
Tue 01:32:20 PM 32.9617 -85.6283 336° Northwest 170 196 8,100  Level Atlanta Center
Tue 01:33:20 PM 33.0053 -85.6514 336° Northwest 170 196 8,100  Level Atlanta Center
Tue 01:34:20 PM 33.0486 -85.6744 336° Northwest 170 196 8,100  Level Atlanta Center
Tue 01:35:20 PM 33.0900 -85.6975 335° Northwest 170 196 8,100  Level Atlanta Center
Tue 01:36:20 PM 33.1336 -85.7183 338° Northwest 170 196 8,100  Level Atlanta Center
Tue 01:37:20 PM 33.1750 -85.7414 335° Northwest 170 196 8,100  Level Atlanta Center
Tue 01:38:20 PM 33.2186 -85.7669 334° Northwest 170 196 8,100 -50 Level Atlanta Center
Tue 01:39:20 PM 33.2514 -85.8050 316° Northwest 163 188 8,000  Descending Atlanta Center
Tue 01:40:20 PM 33.2886 -85.8306 330° Northwest 163 188 8,100 50 Climbing Atlanta Center
Tue 01:41:20 PM 33.3300 -85.8611 328° Northwest 163 188 8,100  Level Atlanta Center
Tue 01:42:20 PM 33.3692 -85.8894 329° Northwest 163 188 8,100  Level Atlanta Center
Tue 01:43:20 PM 33.4106 -85.9178 330° Northwest 163 188 8,100  Level Atlanta Center
Tue 01:44:20 PM 33.4475 -85.9483 325° Northwest 163 188 8,100  Level Atlanta Center
Tue 01:45:20 PM 33.4889 -85.9792 328° Northwest 168 193 8,100  Level Atlanta Center
Tue 01:46:20 PM 33.5281 -86.0125 325° Northwest 168 193 8,100  Level Atlanta Center
Tue 01:47:20 PM 33.5714 -86.0383 334° Northwest 168 193 8,100  Level Atlanta Center
Tue 01:48:20 PM 33.6147 -86.0619 336° Northwest 168 193 8,100  Level Atlanta Center
Tue 01:49:20 PM 33.6625 -86.0853 338° Northwest 174 200 8,100  Level Atlanta Center
Tue 01:50:20 PM 33.7058 -86.1064 338° Northwest 174 200 8,100  Level Atlanta Center
Tue 01:51:20 PM 33.7536 -86.1225 344° North 174 200 8,100  Level Atlanta Center
Tue 01:52:20 PM 33.7992 -86.1436 339° North 168 193 8,100 -50 Level Atlanta Center
Tue 01:53:20 PM 33.8450 -86.1597 344° North 168 193 8,000  Descending Atlanta Center
Tue 01:54:20 PM 33.8906 -86.1758 344° North 168 193 8,100 50 Climbing Atlanta Center
Tue 01:55:20 PM 33.9361 -86.1947 341° North 168 193 8,100  Level Atlanta Center
Tue 01:56:20 PM 33.9817 -86.2108 344° North 168 193 8,100  Level Atlanta Center
Tue 01:57:20 PM 34.0294 -86.2294 342° North 168 193 8,100  Level Atlanta Center
Tue 01:58:20 PM 34.0728 -86.2481 340° North 168 193 8,100  Level Atlanta Center
Tue 02:00:00 PM 34.1457 -86.2700 346° North  Level FlightAware Approximate
Tue 02:07:00 PM 34.4464 -86.3845 334° Northwest  Level FlightAware Approximate
Tue 02:08:00 PM 34.4868 -86.4088 334° Northwest  Level FlightAware Approximate
Tue 02:09:00 PM 34.5300 -86.4227 351° North  Level FlightAware Approximate
Tue 02:10:00 PM 34.5745 -86.4316 351° North  Level FlightAware Approximate
Tue 02:11:00 PM 34.6177 -86.4471 342° North  Level FlightAware Approximate
Tue 02:12:00 PM 34.6605 -86.4642 342° North  Level FlightAware Approximate
Tue 02:13:00 PM 34.7034 -86.4813 342° North  Level FlightAware Approximate
Tue 02:14:00 PM 34.7462 -86.4985 342° North  Level FlightAware Approximate
Tue 02:15:00 PM 34.7880 -86.5190 338° Northwest  Level FlightAware Approximate

Login

Don't have an account? Register now (free) for customized features, flight alerts, and more!